sensor_id;sensor_type;location;lat;lon;timestamp;P1;durP1;ratioP1;P2;durP2;ratioP2
43857;SDS011;29507;51.284;5.758;2022-12-04T00:01:30;45.22;;;16.45;;
43857;SDS011;29507;51.284;5.758;2022-12-04T00:03:57;40.95;;;14.82;;
43857;SDS011;29507;51.284;5.758;2022-12-04T00:06:24;42.67;;;13.63;;
43857;SDS011;29507;51.284;5.758;2022-12-04T00:08:50;36.08;;;13.40;;
43857;SDS011;29507;51.284;5.758;2022-12-04T00:11:18;38.55;;;14.32;;
43857;SDS011;29507;51.284;5.758;2022-12-04T00:13:46;42.10;;;14.95;;
43857;SDS011;29507;51.284;5.758;2022-12-04T00:16:14;38.95;;;14.38;;
43857;SDS011;29507;51.284;5.758;2022-12-04T00:18:44;34.65;;;13.98;;
43857;SDS011;29507;51.284;5.758;2022-12-04T00:21:11;43.03;;;15.05;;
43857;SDS011;29507;51.284;5.758;2022-12-04T00:23:38;43.00;;;15.88;;
43857;SDS011;29507;51.284;5.758;2022-12-04T00:26:13;36.25;;;13.50;;
43857;SDS011;29507;51.284;5.758;2022-12-04T00:28:42;40.20;;;15.00;;
43857;SDS011;29507;51.284;5.758;2022-12-04T00:31:09;37.83;;;14.15;;
43857;SDS011;29507;51.284;5.758;2022-12-04T00:33:36;39.45;;;15.20;;
43857;SDS011;29507;51.284;5.758;2022-12-04T00:36:03;36.45;;;13.40;;
43857;SDS011;29507;51.284;5.758;2022-12-04T00:38:31;43.70;;;15.70;;
43857;SDS011;29507;51.284;5.758;2022-12-04T00:40:57;43.22;;;15.95;;
43857;SDS011;29507;51.284;5.758;2022-12-04T00:43:24;40.60;;;15.65;;
43857;SDS011;29507;51.284;5.758;2022-12-04T00:45:50;43.00;;;15.43;;
43857;SDS011;29507;51.284;5.758;2022-12-04T00:48:16;37.80;;;15.23;;
43857;SDS011;29507;51.284;5.758;2022-12-04T00:50:42;40.63;;;15.93;;
43857;SDS011;29507;51.284;5.758;2022-12-04T00:53:07;43.28;;;16.60;;
43857;SDS011;29507;51.284;5.758;2022-12-04T00:55:36;41.38;;;16.20;;
43857;SDS011;29507;51.284;5.758;2022-12-04T00:58:05;47.05;;;16.08;;
43857;SDS011;29507;51.284;5.758;2022-12-04T01:00:32;45.83;;;15.93;;
43857;SDS011;29507;51.284;5.758;2022-12-04T01:03:01;42.95;;;14.93;;
43857;SDS011;29507;51.284;5.758;2022-12-04T01:05:28;40.30;;;15.45;;
43857;SDS011;29507;51.284;5.758;2022-12-04T01:07:53;42.28;;;15.57;;
43857;SDS011;29507;51.284;5.758;2022-12-04T01:10:19;47.03;;;17.75;;
43857;SDS011;29507;51.284;5.758;2022-12-04T01:12:47;45.47;;;15.23;;
43857;SDS011;29507;51.284;5.758;2022-12-04T01:17:39;45.00;;;16.05;;
43857;SDS011;29507;51.284;5.758;2022-12-04T01:20:05;37.35;;;14.43;;
43857;SDS011;29507;51.284;5.758;2022-12-04T01:22:31;45.40;;;16.80;;
43857;SDS011;29507;51.284;5.758;2022-12-04T01:24:56;43.10;;;15.95;;
43857;SDS011;29507;51.284;5.758;2022-12-04T01:27:22;42.28;;;15.40;;
43857;SDS011;29507;51.284;5.758;2022-12-04T01:29:48;40.83;;;15.63;;
43857;SDS011;29507;51.284;5.758;2022-12-04T01:32:14;41.75;;;15.75;;
43857;SDS011;29507;51.284;5.758;2022-12-04T01:34:39;40.63;;;15.00;;
43857;SDS011;29507;51.284;5.758;2022-12-04T01:37:05;46.55;;;15.52;;
43857;SDS011;29507;51.284;5.758;2022-12-04T01:39:30;40.60;;;14.30;;
43857;SDS011;29507;51.284;5.758;2022-12-04T01:41:56;42.72;;;15.57;;
43857;SDS011;29507;51.284;5.758;2022-12-04T01:44:23;41.78;;;15.27;;
43857;SDS011;29507;51.284;5.758;2022-12-04T01:46:51;42.42;;;16.13;;
43857;SDS011;29507;51.284;5.758;2022-12-04T01:49:31;44.75;;;15.45;;
43857;SDS011;29507;51.284;5.758;2022-12-04T01:52:04;41.15;;;16.77;;
43857;SDS011;29507;51.284;5.758;2022-12-04T01:54:38;40.72;;;15.70;;
43857;SDS011;29507;51.284;5.758;2022-12-04T01:59:45;41.60;;;14.90;;
43857;SDS011;29507;51.284;5.758;2022-12-04T02:02:15;38.55;;;14.45;;
43857;SDS011;29507;51.284;5.758;2022-12-04T02:04:43;45.28;;;14.45;;
43857;SDS011;29507;51.284;5.758;2022-12-04T02:07:09;48.63;;;15.48;;
43857;SDS011;29507;51.284;5.758;2022-12-04T02:09:35;45.25;;;16.52;;
43857;SDS011;29507;51.284;5.758;2022-12-04T02:14:47;42.05;;;16.58;;
43857;SDS011;29507;51.284;5.758;2022-12-04T02:17:31;47.65;;;14.60;;
43857;SDS011;29507;51.284;5.758;2022-12-04T02:20:09;46.20;;;16.87;;
43857;SDS011;29507;51.284;5.758;2022-12-04T02:26:00;47.47;;;16.45;;
43857;SDS011;29507;51.284;5.758;2022-12-04T02:31:27;47.17;;;16.17;;
43857;SDS011;29507;51.284;5.758;2022-12-04T02:36:30;47.75;;;16.65;;
43857;SDS011;29507;51.284;5.758;2022-12-04T02:39:09;36.38;;;14.45;;
43857;SDS011;29507;51.284;5.758;2022-12-04T02:41:46;46.83;;;16.00;;
43857;SDS011;29507;51.284;5.758;2022-12-04T02:44:44;36.03;;;14.00;;
43857;SDS011;29507;51.284;5.758;2022-12-04T02:47:15;37.63;;;14.68;;
43857;SDS011;29507;51.284;5.758;2022-12-04T02:49:45;45.25;;;15.73;;
43857;SDS011;29507;51.284;5.758;2022-12-04T02:52:16;47.13;;;16.25;;
43857;SDS011;29507;51.284;5.758;2022-12-04T02:54:48;46.95;;;15.50;;
43857;SDS011;29507;51.284;5.758;2022-12-04T02:57:20;40.88;;;15.40;;
43857;SDS011;29507;51.284;5.758;2022-12-04T02:59:49;40.03;;;14.63;;
43857;SDS011;29507;51.284;5.758;2022-12-04T03:04:57;37.13;;;14.60;;
43857;SDS011;29507;51.284;5.758;2022-12-04T03:07:42;45.85;;;17.02;;
43857;SDS011;29507;51.284;5.758;2022-12-04T03:10:15;39.22;;;16.10;;
43857;SDS011;29507;51.284;5.758;2022-12-04T03:12:49;46.47;;;16.48;;
43857;SDS011;29507;51.284;5.758;2022-12-04T03:17:49;36.40;;;14.50;;
43857;SDS011;29507;51.284;5.758;2022-12-04T03:20:22;41.17;;;15.73;;
43857;SDS011;29507;51.284;5.758;2022-12-04T03:22:50;43.33;;;16.88;;
43857;SDS011;29507;51.284;5.758;2022-12-04T03:25:28;41.95;;;15.30;;
43857;SDS011;29507;51.284;5.758;2022-12-04T03:27:59;46.22;;;15.60;;
43857;SDS011;29507;51.284;5.758;2022-12-04T03:30:29;43.63;;;14.82;;
43857;SDS011;29507;51.284;5.758;2022-12-04T03:33:07;40.22;;;16.17;;
43857;SDS011;29507;51.284;5.758;2022-12-04T03:35:46;40.90;;;15.35;;
43857;SDS011;29507;51.284;5.758;2022-12-04T03:41:03;39.92;;;15.43;;
43857;SDS011;29507;51.284;5.758;2022-12-04T03:43:38;41.70;;;14.73;;
43857;SDS011;29507;51.284;5.758;2022-12-04T03:46:09;42.83;;;16.27;;
43857;SDS011;29507;51.284;5.758;2022-12-04T03:48:46;44.85;;;16.58;;
43857;SDS011;29507;51.284;5.758;2022-12-04T03:51:34;45.88;;;16.08;;
43857;SDS011;29507;51.284;5.758;2022-12-04T03:54:11;45.85;;;16.00;;
43857;SDS011;29507;51.284;5.758;2022-12-04T03:56:50;39.92;;;15.52;;
43857;SDS011;29507;51.284;5.758;2022-12-04T03:59:22;47.20;;;15.50;;
43857;SDS011;29507;51.284;5.758;2022-12-04T04:02:03;36.83;;;14.20;;
43857;SDS011;29507;51.284;5.758;2022-12-04T04:04:34;43.65;;;16.73;;
43857;SDS011;29507;51.284;5.758;2022-12-04T04:07:20;49.17;;;16.33;;
43857;SDS011;29507;51.284;5.758;2022-12-04T04:09:52;45.65;;;13.30;;
43857;SDS011;29507;51.284;5.758;2022-12-04T04:12:22;41.70;;;16.73;;
43857;SDS011;29507;51.284;5.758;2022-12-04T04:14:52;40.50;;;15.73;;
43857;SDS011;29507;51.284;5.758;2022-12-04T04:17:43;39.83;;;15.32;;
43857;SDS011;29507;51.284;5.758;2022-12-04T04:20:40;44.35;;;16.23;;
43857;SDS011;29507;51.284;5.758;2022-12-04T04:23:35;44.28;;;16.08;;
43857;SDS011;29507;51.284;5.758;2022-12-04T04:26:24;44.83;;;15.77;;
43857;SDS011;29507;51.284;5.758;2022-12-04T04:28:53;43.75;;;15.95;;
43857;SDS011;29507;51.284;5.758;2022-12-04T04:31:28;43.80;;;16.15;;
43857;SDS011;29507;51.284;5.758;2022-12-04T04:42:03;50.80;;;17.15;;
43857;SDS011;29507;51.284;5.758;2022-12-04T04:45:12;50.50;;;17.10;;
43857;SDS011;29507;51.284;5.758;2022-12-04T04:47:50;47.47;;;16.55;;
43857;SDS011;29507;51.284;5.758;2022-12-04T04:50:24;43.10;;;16.40;;
43857;SDS011;29507;51.284;5.758;2022-12-04T04:52:54;46.97;;;16.48;;
43857;SDS011;29507;51.284;5.758;2022-12-04T04:55:23;46.08;;;16.88;;
43857;SDS011;29507;51.284;5.758;2022-12-04T04:57:50;47.20;;;15.60;;
43857;SDS011;29507;51.284;5.758;2022-12-04T05:00:17;46.30;;;17.63;;
43857;SDS011;29507;51.284;5.758;2022-12-04T05:02:45;47.63;;;17.55;;
43857;SDS011;29507;51.284;5.758;2022-12-04T05:05:13;48.65;;;16.63;;
43857;SDS011;29507;51.284;5.758;2022-12-04T05:07:38;47.33;;;16.00;;
43857;SDS011;29507;51.284;5.758;2022-12-04T05:10:04;52.00;;;17.40;;
43857;SDS011;29507;51.284;5.758;2022-12-04T05:12:30;47.65;;;17.00;;
43857;SDS011;29507;51.284;5.758;2022-12-04T05:14:56;46.00;;;16.50;;
43857;SDS011;29507;51.284;5.758;2022-12-04T05:17:22;44.25;;;16.73;;
43857;SDS011;29507;51.284;5.758;2022-12-04T05:19:47;44.10;;;15.98;;
43857;SDS011;29507;51.284;5.758;2022-12-04T05:22:21;49.08;;;17.67;;
43857;SDS011;29507;51.284;5.758;2022-12-04T05:24:49;45.33;;;16.83;;
43857;SDS011;29507;51.284;5.758;2022-12-04T05:27:14;46.05;;;16.95;;
43857;SDS011;29507;51.284;5.758;2022-12-04T05:29:40;43.65;;;17.48;;
43857;SDS011;29507;51.284;5.758;2022-12-04T05:32:06;46.00;;;17.80;;
43857;SDS011;29507;51.284;5.758;2022-12-04T05:34:31;45.75;;;17.15;;
43857;SDS011;29507;51.284;5.758;2022-12-04T05:36:57;46.13;;;17.48;;
43857;SDS011;29507;51.284;5.758;2022-12-04T05:39:23;54.03;;;16.52;;
43857;SDS011;29507;51.284;5.758;2022-12-04T05:41:48;43.45;;;16.25;;
43857;SDS011;29507;51.284;5.758;2022-12-04T05:44:14;47.65;;;17.92;;
43857;SDS011;29507;51.284;5.758;2022-12-04T05:46:39;53.13;;;18.05;;
43857;SDS011;29507;51.284;5.758;2022-12-04T05:49:05;47.22;;;15.45;;
43857;SDS011;29507;51.284;5.758;2022-12-04T05:51:30;45.85;;;17.10;;
43857;SDS011;29507;51.284;5.758;2022-12-04T05:53:56;48.08;;;17.90;;
43857;SDS011;29507;51.284;5.758;2022-12-04T05:56:21;45.95;;;16.25;;
43857;SDS011;29507;51.284;5.758;2022-12-04T05:58:47;47.85;;;17.70;;
43857;SDS011;29507;51.284;5.758;2022-12-04T06:01:17;42.75;;;16.25;;
43857;SDS011;29507;51.284;5.758;2022-12-04T06:03:44;44.55;;;17.30;;
43857;SDS011;29507;51.284;5.758;2022-12-04T06:06:13;50.53;;;17.63;;
43857;SDS011;29507;51.284;5.758;2022-12-04T06:08:41;45.13;;;17.33;;
43857;SDS011;29507;51.284;5.758;2022-12-04T06:11:13;50.10;;;16.60;;
43857;SDS011;29507;51.284;5.758;2022-12-04T06:13:44;44.33;;;17.10;;
43857;SDS011;29507;51.284;5.758;2022-12-04T06:16:11;55.22;;;18.77;;
43857;SDS011;29507;51.284;5.758;2022-12-04T06:18:42;43.75;;;16.25;;
43857;SDS011;29507;51.284;5.758;2022-12-04T06:21:08;46.28;;;18.85;;
43857;SDS011;29507;51.284;5.758;2022-12-04T06:23:34;42.78;;;16.80;;
43857;SDS011;29507;51.284;5.758;2022-12-04T06:26:03;44.20;;;16.85;;
43857;SDS011;29507;51.284;5.758;2022-12-04T06:28:29;44.75;;;18.23;;
43857;SDS011;29507;51.284;5.758;2022-12-04T06:30:59;50.03;;;17.08;;
43857;SDS011;29507;51.284;5.758;2022-12-04T06:33:28;44.70;;;17.50;;
43857;SDS011;29507;51.284;5.758;2022-12-04T06:35:58;46.45;;;16.65;;
43857;SDS011;29507;51.284;5.758;2022-12-04T06:38:29;47.47;;;17.52;;
43857;SDS011;29507;51.284;5.758;2022-12-04T06:40:55;44.97;;;16.88;;
43857;SDS011;29507;51.284;5.758;2022-12-04T06:43:21;41.55;;;17.20;;
43857;SDS011;29507;51.284;5.758;2022-12-04T06:45:47;45.70;;;16.23;;
43857;SDS011;29507;51.284;5.758;2022-12-04T06:48:12;44.50;;;18.48;;
43857;SDS011;29507;51.284;5.758;2022-12-04T06:50:38;46.90;;;17.90;;
43857;SDS011;29507;51.284;5.758;2022-12-04T06:53:04;37.95;;;15.98;;
43857;SDS011;29507;51.284;5.758;2022-12-04T06:55:29;41.65;;;16.13;;
43857;SDS011;29507;51.284;5.758;2022-12-04T06:57:55;40.45;;;16.02;;
43857;SDS011;29507;51.284;5.758;2022-12-04T07:00:20;42.40;;;14.75;;
43857;SDS011;29507;51.284;5.758;2022-12-04T07:02:46;42.33;;;15.55;;
43857;SDS011;29507;51.284;5.758;2022-12-04T07:05:11;44.47;;;15.25;;
43857;SDS011;29507;51.284;5.758;2022-12-04T07:07:37;45.05;;;16.98;;
43857;SDS011;29507;51.284;5.758;2022-12-04T07:10:03;39.70;;;16.20;;
43857;SDS011;29507;51.284;5.758;2022-12-04T07:12:29;45.78;;;15.23;;
43857;SDS011;29507;51.284;5.758;2022-12-04T07:14:54;40.08;;;15.23;;
43857;SDS011;29507;51.284;5.758;2022-12-04T07:17:20;43.15;;;16.05;;
43857;SDS011;29507;51.284;5.758;2022-12-04T07:19:45;45.83;;;18.02;;
43857;SDS011;29507;51.284;5.758;2022-12-04T07:22:11;42.63;;;15.38;;
43857;SDS011;29507;51.284;5.758;2022-12-04T07:24:36;36.80;;;15.27;;
43857;SDS011;29507;51.284;5.758;2022-12-04T07:27:02;36.00;;;14.52;;
43857;SDS011;29507;51.284;5.758;2022-12-04T07:29:28;35.75;;;13.80;;
43857;SDS011;29507;51.284;5.758;2022-12-04T07:31:54;38.25;;;14.45;;
43857;SDS011;29507;51.284;5.758;2022-12-04T07:34:19;36.10;;;14.10;;
43857;SDS011;29507;51.284;5.758;2022-12-04T07:36:45;36.60;;;14.18;;
43857;SDS011;29507;51.284;5.758;2022-12-04T07:39:10;32.22;;;13.18;;
43857;SDS011;29507;51.284;5.758;2022-12-04T07:41:36;38.10;;;15.57;;
43857;SDS011;29507;51.284;5.758;2022-12-04T07:44:02;36.97;;;14.07;;
43857;SDS011;29507;51.284;5.758;2022-12-04T07:46:28;38.83;;;15.15;;
43857;SDS011;29507;51.284;5.758;2022-12-04T07:48:54;36.13;;;14.02;;
43857;SDS011;29507;51.284;5.758;2022-12-04T07:51:21;44.72;;;14.73;;
43857;SDS011;29507;51.284;5.758;2022-12-04T07:53:48;38.00;;;13.93;;
43857;SDS011;29507;51.284;5.758;2022-12-04T07:56:15;40.45;;;15.25;;
43857;SDS011;29507;51.284;5.758;2022-12-04T07:58:43;37.22;;;14.13;;
43857;SDS011;29507;51.284;5.758;2022-12-04T08:01:13;38.47;;;14.93;;
43857;SDS011;29507;51.284;5.758;2022-12-04T08:03:41;38.20;;;14.68;;
43857;SDS011;29507;51.284;5.758;2022-12-04T08:06:09;38.20;;;14.63;;
43857;SDS011;29507;51.284;5.758;2022-12-04T08:08:35;41.00;;;14.32;;
43857;SDS011;29507;51.284;5.758;2022-12-04T08:11:04;38.38;;;14.20;;
43857;SDS011;29507;51.284;5.758;2022-12-04T08:13:31;37.58;;;14.27;;
43857;SDS011;29507;51.284;5.758;2022-12-04T08:15:59;30.35;;;13.18;;
43857;SDS011;29507;51.284;5.758;2022-12-04T08:18:26;35.17;;;12.98;;
43857;SDS011;29507;51.284;5.758;2022-12-04T08:20:51;31.52;;;12.57;;
43857;SDS011;29507;51.284;5.758;2022-12-04T08:23:17;30.27;;;12.40;;
43857;SDS011;29507;51.284;5.758;2022-12-04T08:25:42;34.42;;;13.38;;
43857;SDS011;29507;51.284;5.758;2022-12-04T08:28:08;31.90;;;11.15;;
43857;SDS011;29507;51.284;5.758;2022-12-04T08:30:34;35.47;;;12.68;;
43857;SDS011;29507;51.284;5.758;2022-12-04T08:32:59;32.50;;;13.68;;
43857;SDS011;29507;51.284;5.758;2022-12-04T08:35:25;31.95;;;11.98;;
43857;SDS011;29507;51.284;5.758;2022-12-04T08:37:51;31.27;;;13.07;;
43857;SDS011;29507;51.284;5.758;2022-12-04T08:40:16;30.02;;;11.52;;
43857;SDS011;29507;51.284;5.758;2022-12-04T08:42:42;31.10;;;11.48;;
43857;SDS011;29507;51.284;5.758;2022-12-04T08:45:07;33.17;;;12.63;;
43857;SDS011;29507;51.284;5.758;2022-12-04T08:47:34;29.52;;;12.25;;
43857;SDS011;29507;51.284;5.758;2022-12-04T08:49:59;30.73;;;11.80;;
43857;SDS011;29507;51.284;5.758;2022-12-04T08:52:25;29.48;;;11.70;;
43857;SDS011;29507;51.284;5.758;2022-12-04T08:54:50;31.23;;;11.73;;
43857;SDS011;29507;51.284;5.758;2022-12-04T08:57:16;28.25;;;10.63;;
43857;SDS011;29507;51.284;5.758;2022-12-04T08:59:41;27.92;;;12.52;;
43857;SDS011;29507;51.284;5.758;2022-12-04T09:02:08;29.08;;;12.45;;
43857;SDS011;29507;51.284;5.758;2022-12-04T09:04:35;26.88;;;10.10;;
43857;SDS011;29507;51.284;5.758;2022-12-04T09:07:00;31.80;;;11.70;;
43857;SDS011;29507;51.284;5.758;2022-12-04T09:09:26;27.02;;;11.15;;
43857;SDS011;29507;51.284;5.758;2022-12-04T09:11:51;28.77;;;11.68;;
43857;SDS011;29507;51.284;5.758;2022-12-04T09:14:17;31.27;;;12.50;;
43857;SDS011;29507;51.284;5.758;2022-12-04T09:16:43;28.50;;;11.68;;
43857;SDS011;29507;51.284;5.758;2022-12-04T09:19:09;29.75;;;12.55;;
43857;SDS011;29507;51.284;5.758;2022-12-04T09:21:34;28.85;;;12.23;;
43857;SDS011;29507;51.284;5.758;2022-12-04T09:24:00;32.35;;;11.85;;
43857;SDS011;29507;51.284;5.758;2022-12-04T09:26:30;30.77;;;12.65;;
43857;SDS011;29507;51.284;5.758;2022-12-04T09:28:57;33.10;;;13.40;;
43857;SDS011;29507;51.284;5.758;2022-12-04T09:31:25;28.23;;;11.75;;
43857;SDS011;29507;51.284;5.758;2022-12-04T09:33:51;32.65;;;13.02;;
43857;SDS011;29507;51.284;5.758;2022-12-04T09:36:17;34.17;;;13.73;;
43857;SDS011;29507;51.284;5.758;2022-12-04T09:38:43;31.50;;;13.80;;
43857;SDS011;29507;51.284;5.758;2022-12-04T09:49:35;29.75;;;13.18;;
43857;SDS011;29507;51.284;5.758;2022-12-04T09:52:08;31.17;;;13.18;;
43857;SDS011;29507;51.284;5.758;2022-12-04T09:54:50;28.23;;;12.63;;
43857;SDS011;29507;51.284;5.758;2022-12-04T09:57:21;32.08;;;12.63;;
43857;SDS011;29507;51.284;5.758;2022-12-04T09:59:53;31.77;;;12.82;;
43857;SDS011;29507;51.284;5.758;2022-12-04T10:05:04;29.33;;;13.00;;
43857;SDS011;29507;51.284;5.758;2022-12-04T10:16:03;24.20;;;12.27;;
43857;SDS011;29507;51.284;5.758;2022-12-04T10:18:59;27.58;;;12.23;;
43857;SDS011;29507;51.284;5.758;2022-12-04T10:30:19;27.77;;;11.40;;
43857;SDS011;29507;51.284;5.758;2022-12-04T10:33:02;23.45;;;11.93;;
43857;SDS011;29507;51.284;5.758;2022-12-04T10:35:49;21.05;;;10.10;;
43857;SDS011;29507;51.284;5.758;2022-12-04T10:40:57;27.45;;;12.55;;
43857;SDS011;29507;51.284;5.758;2022-12-04T10:43:43;22.77;;;12.07;;
43857;SDS011;29507;51.284;5.758;2022-12-04T10:46:31;26.58;;;11.10;;
43857;SDS011;29507;51.284;5.758;2022-12-04T10:48:59;24.67;;;10.82;;
43857;SDS011;29507;51.284;5.758;2022-12-04T10:51:47;23.00;;;11.35;;
43857;SDS011;29507;51.284;5.758;2022-12-04T10:59:46;23.58;;;11.35;;
43857;SDS011;29507;51.284;5.758;2022-12-04T11:02:21;25.45;;;11.85;;
43857;SDS011;29507;51.284;5.758;2022-12-04T11:04:50;24.45;;;11.70;;
43857;SDS011;29507;51.284;5.758;2022-12-04T11:07:27;23.50;;;11.38;;
43857;SDS011;29507;51.284;5.758;2022-12-04T11:10:00;22.90;;;10.70;;
43857;SDS011;29507;51.284;5.758;2022-12-04T11:12:30;26.30;;;12.27;;
43857;SDS011;29507;51.284;5.758;2022-12-04T11:15:00;23.65;;;11.13;;
43857;SDS011;29507;51.284;5.758;2022-12-04T11:17:31;22.63;;;11.88;;
43857;SDS011;29507;51.284;5.758;2022-12-04T11:19:58;25.98;;;12.38;;
43857;SDS011;29507;51.284;5.758;2022-12-04T11:22:24;24.27;;;11.68;;
43857;SDS011;29507;51.284;5.758;2022-12-04T11:24:53;24.50;;;11.40;;
43857;SDS011;29507;51.284;5.758;2022-12-04T11:27:54;28.05;;;12.75;;
43857;SDS011;29507;51.284;5.758;2022-12-04T11:30:15;22.42;;;11.13;;
43857;SDS011;29507;51.284;5.758;2022-12-04T11:32:45;24.73;;;11.27;;
43857;SDS011;29507;51.284;5.758;2022-12-04T11:35:12;23.23;;;10.40;;
43857;SDS011;29507;51.284;5.758;2022-12-04T11:37:41;18.92;;;10.30;;
43857;SDS011;29507;51.284;5.758;2022-12-04T11:40:17;24.42;;;11.35;;
43857;SDS011;29507;51.284;5.758;2022-12-04T11:42:43;17.88;;;9.63;;
43857;SDS011;29507;51.284;5.758;2022-12-04T11:45:36;19.73;;;10.35;;
43857;SDS011;29507;51.284;5.758;2022-12-04T11:48:03;21.42;;;9.82;;
43857;SDS011;29507;51.284;5.758;2022-12-04T11:50:49;17.77;;;9.00;;
43857;SDS011;29507;51.284;5.758;2022-12-04T11:53:45;22.60;;;10.23;;
43857;SDS011;29507;51.284;5.758;2022-12-04T12:04:42;21.27;;;9.90;;
43857;SDS011;29507;51.284;5.758;2022-12-04T12:13:14;20.00;;;9.68;;
43857;SDS011;29507;51.284;5.758;2022-12-04T12:15:58;20.02;;;9.98;;
43857;SDS011;29507;51.284;5.758;2022-12-04T12:24:24;21.98;;;9.55;;
43857;SDS011;29507;51.284;5.758;2022-12-04T12:29:58;21.98;;;10.05;;
43857;SDS011;29507;51.284;5.758;2022-12-04T12:32:48;21.15;;;10.27;;
43857;SDS011;29507;51.284;5.758;2022-12-04T12:35:29;22.77;;;9.75;;
43857;SDS011;29507;51.284;5.758;2022-12-04T12:38:09;22.60;;;10.25;;
43857;SDS011;29507;51.284;5.758;2022-12-04T12:40:40;21.33;;;10.27;;
43857;SDS011;29507;51.284;5.758;2022-12-04T12:43:14;21.33;;;9.80;;
43857;SDS011;29507;51.284;5.758;2022-12-04T12:51:05;24.25;;;11.18;;
43857;SDS011;29507;51.284;5.758;2022-12-04T12:53:40;24.92;;;10.95;;
43857;SDS011;29507;51.284;5.758;2022-12-04T12:56:11;23.13;;;10.68;;
43857;SDS011;29507;51.284;5.758;2022-12-04T12:58:45;20.90;;;10.55;;
43857;SDS011;29507;51.284;5.758;2022-12-04T13:01:16;26.17;;;10.45;;
43857;SDS011;29507;51.284;5.758;2022-12-04T13:04:34;26.52;;;11.07;;
43857;SDS011;29507;51.284;5.758;2022-12-04T13:09:45;22.65;;;9.70;;
43857;SDS011;29507;51.284;5.758;2022-12-04T13:12:15;21.23;;;9.98;;
43857;SDS011;29507;51.284;5.758;2022-12-04T13:14:43;19.30;;;9.65;;
43857;SDS011;29507;51.284;5.758;2022-12-04T13:17:12;21.67;;;10.75;;
43857;SDS011;29507;51.284;5.758;2022-12-04T13:19:48;19.60;;;9.60;;
43857;SDS011;29507;51.284;5.758;2022-12-04T13:22:35;27.52;;;11.10;;
43857;SDS011;29507;51.284;5.758;2022-12-04T13:25:20;24.23;;;10.80;;
43857;SDS011;29507;51.284;5.758;2022-12-04T13:34:05;22.33;;;10.77;;
43857;SDS011;29507;51.284;5.758;2022-12-04T13:42:15;22.77;;;10.65;;
43857;SDS011;29507;51.284;5.758;2022-12-04T13:44:56;24.20;;;11.10;;
43857;SDS011;29507;51.284;5.758;2022-12-04T13:47:25;28.55;;;11.90;;
43857;SDS011;29507;51.284;5.758;2022-12-04T13:50:04;21.75;;;9.95;;
43857;SDS011;29507;51.284;5.758;2022-12-04T13:52:46;29.98;;;11.48;;
43857;SDS011;29507;51.284;5.758;2022-12-04T13:58:04;26.17;;;11.15;;
43857;SDS011;29507;51.284;5.758;2022-12-04T14:00:58;26.05;;;11.70;;
43857;SDS011;29507;51.284;5.758;2022-12-04T14:03:33;26.92;;;12.73;;
43857;SDS011;29507;51.284;5.758;2022-12-04T14:06:19;23.40;;;10.65;;
43857;SDS011;29507;51.284;5.758;2022-12-04T14:09:04;26.13;;;12.18;;
43857;SDS011;29507;51.284;5.758;2022-12-04T14:11:56;28.17;;;12.20;;
43857;SDS011;29507;51.284;5.758;2022-12-04T14:14:24;27.02;;;11.38;;
43857;SDS011;29507;51.284;5.758;2022-12-04T14:16:53;27.67;;;11.95;;
43857;SDS011;29507;51.284;5.758;2022-12-04T14:19:33;30.35;;;12.32;;
43857;SDS011;29507;51.284;5.758;2022-12-04T14:22:03;29.63;;;12.38;;
43857;SDS011;29507;51.284;5.758;2022-12-04T14:24:35;28.33;;;11.82;;
43857;SDS011;29507;51.284;5.758;2022-12-04T14:27:28;28.98;;;13.30;;
43857;SDS011;29507;51.284;5.758;2022-12-04T14:32:43;27.02;;;12.15;;
43857;SDS011;29507;51.284;5.758;2022-12-04T14:35:29;24.80;;;11.82;;
43857;SDS011;29507;51.284;5.758;2022-12-04T14:38:00;33.13;;;12.20;;
43857;SDS011;29507;51.284;5.758;2022-12-04T14:40:42;27.55;;;11.70;;
43857;SDS011;29507;51.284;5.758;2022-12-04T14:43:14;29.02;;;13.32;;
43857;SDS011;29507;51.284;5.758;2022-12-04T14:45:59;27.52;;;12.20;;
43857;SDS011;29507;51.284;5.758;2022-12-04T14:51:24;26.30;;;11.45;;
43857;SDS011;29507;51.284;5.758;2022-12-04T15:00:12;25.73;;;11.98;;
43857;SDS011;29507;51.284;5.758;2022-12-04T15:02:41;27.88;;;11.57;;
43857;SDS011;29507;51.284;5.758;2022-12-04T15:05:10;24.30;;;10.60;;
43857;SDS011;29507;51.284;5.758;2022-12-04T15:08:00;28.13;;;10.90;;
43857;SDS011;29507;51.284;5.758;2022-12-04T15:10:30;23.27;;;11.48;;
43857;SDS011;29507;51.284;5.758;2022-12-04T15:13:27;29.63;;;12.18;;
43857;SDS011;29507;51.284;5.758;2022-12-04T15:15:55;28.15;;;12.30;;
43857;SDS011;29507;51.284;5.758;2022-12-04T15:18:21;29.90;;;12.18;;
43857;SDS011;29507;51.284;5.758;2022-12-04T15:23:16;28.77;;;12.07;;
43857;SDS011;29507;51.284;5.758;2022-12-04T15:25:46;27.52;;;11.90;;
43857;SDS011;29507;51.284;5.758;2022-12-04T15:28:27;25.52;;;12.18;;
43857;SDS011;29507;51.284;5.758;2022-12-04T15:30:55;27.70;;;13.13;;
43857;SDS011;29507;51.284;5.758;2022-12-04T15:33:24;28.92;;;11.95;;
43857;SDS011;29507;51.284;5.758;2022-12-04T15:35:57;24.38;;;11.15;;
43857;SDS011;29507;51.284;5.758;2022-12-04T15:38:46;27.30;;;12.18;;
43857;SDS011;29507;51.284;5.758;2022-12-04T15:41:31;29.85;;;11.32;;
43857;SDS011;29507;51.284;5.758;2022-12-04T15:44:01;30.00;;;11.82;;
43857;SDS011;29507;51.284;5.758;2022-12-04T15:46:45;28.60;;;12.75;;
43857;SDS011;29507;51.284;5.758;2022-12-04T15:51:45;34.45;;;13.20;;
43857;SDS011;29507;51.284;5.758;2022-12-04T15:54:22;28.50;;;11.98;;
43857;SDS011;29507;51.284;5.758;2022-12-04T15:56:56;25.10;;;11.03;;
43857;SDS011;29507;51.284;5.758;2022-12-04T15:59:33;30.33;;;11.68;;
43857;SDS011;29507;51.284;5.758;2022-12-04T16:02:03;29.77;;;12.65;;
43857;SDS011;29507;51.284;5.758;2022-12-04T16:04:32;28.80;;;11.50;;
43857;SDS011;29507;51.284;5.758;2022-12-04T16:06:59;31.05;;;11.77;;
43857;SDS011;29507;51.284;5.758;2022-12-04T16:09:26;31.30;;;12.85;;
43857;SDS011;29507;51.284;5.758;2022-12-04T16:11:59;28.55;;;11.00;;
43857;SDS011;29507;51.284;5.758;2022-12-04T16:14:26;26.92;;;10.73;;
43857;SDS011;29507;51.284;5.758;2022-12-04T16:16:56;32.60;;;11.55;;
43857;SDS011;29507;51.284;5.758;2022-12-04T16:22:08;33.05;;;12.98;;
43857;SDS011;29507;51.284;5.758;2022-12-04T16:24:36;29.85;;;12.52;;
43857;SDS011;29507;51.284;5.758;2022-12-04T16:27:24;29.73;;;11.77;;
43857;SDS011;29507;51.284;5.758;2022-12-04T16:29:49;27.30;;;11.00;;
43857;SDS011;29507;51.284;5.758;2022-12-04T16:32:17;29.73;;;12.65;;
43857;SDS011;29507;51.284;5.758;2022-12-04T16:34:45;27.15;;;11.15;;
43857;SDS011;29507;51.284;5.758;2022-12-04T16:37:18;29.00;;;11.88;;
43857;SDS011;29507;51.284;5.758;2022-12-04T16:39:45;30.77;;;12.35;;
43857;SDS011;29507;51.284;5.758;2022-12-04T16:42:15;30.75;;;12.85;;
43857;SDS011;29507;51.284;5.758;2022-12-04T16:44:41;28.13;;;12.40;;
43857;SDS011;29507;51.284;5.758;2022-12-04T16:47:08;29.70;;;13.10;;
43857;SDS011;29507;51.284;5.758;2022-12-04T16:49:35;25.98;;;13.65;;
43857;SDS011;29507;51.284;5.758;2022-12-04T16:52:01;33.83;;;14.13;;
43857;SDS011;29507;51.284;5.758;2022-12-04T16:54:26;33.75;;;13.48;;
43857;SDS011;29507;51.284;5.758;2022-12-04T16:56:52;32.35;;;13.70;;
43857;SDS011;29507;51.284;5.758;2022-12-04T16:59:18;34.58;;;14.20;;